Time;durP1;ratioP1;P1;durP2;ratioP2;P2;SDS_P1;SDS_P2;PMS_P1;PMS_P2;Temp;Humidity;BMP_temperature;BMP_pressure;BME280_temperature;BME280_humidity;BME280_pressure;Samples;Min_cycle;Max_cycle;Signal;HPM_P1;HPM_P2
2023/12/02 00:00:14;;;;;;;7.15;4.10;;;;;;;22.22;37.08;99845.91;2114954;28;20047;-71
2023/12/02 00:01:16;;;;;;;7.18;3.88;;;;;;;22.19;37.11;99841.19;2110991;28;20141;-71
2023/12/02 00:02:18;;;;;;;7.13;4.07;;;;;;;22.16;37.08;99845.47;2103583;28;20029;-71
2023/12/02 00:03:19;;;;;;;5.47;3.70;;;;;;;22.12;37.09;99850.06;2113921;28;20137;-72
2023/12/02 00:04:21;;;;;;;7.10;4.20;;;;;;;22.12;37.26;99852.03;2106724;28;20063;-71
2023/12/02 00:05:23;;;;;;;7.68;4.30;;;;;;;22.12;37.19;99849.28;2098201;28;21005;-73
2023/12/02 00:06:29;;;;;;;6.70;3.65;;;;;;;22.08;37.17;99849.25;2103939;28;20029;-72
2023/12/02 00:07:31;;;;;;;7.68;4.10;;;;;;;22.07;37.00;99847.69;2104799;28;20957;-72
2023/12/02 00:08:33;;;;;;;7.72;3.88;;;;;;;22.06;36.98;99850.78;2115243;28;21077;-72
2023/12/02 00:09:35;;;;;;;6.88;3.95;;;;;;;22.03;36.96;99852.31;2114948;28;20036;-72
2023/12/02 00:10:37;;;;;;;7.30;4.03;;;;;;;22.01;36.97;99849.19;2106764;28;20028;-72
2023/12/02 00:11:39;;;;;;;8.35;4.28;;;;;;;21.99;37.02;99846.78;2098467;28;20037;-71
2023/12/02 00:12:40;;;;;;;6.38;3.90;;;;;;;21.98;36.96;99850.69;2096883;28;20174;-72
2023/12/02 00:13:43;;;;;;;7.15;3.90;;;;;;;21.95;37.06;99851.44;2106685;28;20032;-70
2023/12/02 00:14:44;;;;;;;7.40;4.03;;;;;;;21.94;37.04;99846.31;2114711;27;20032;-70
2023/12/02 00:15:46;;;;;;;6.53;3.70;;;;;;;21.93;37.05;99852.97;2114854;28;20039;-70
2023/12/02 00:16:48;;;;;;;7.47;4.20;;;;;;;21.92;36.97;99854.16;2106948;28;20029;-72
2023/12/02 00:17:50;;;;;;;7.45;3.70;;;;;;;21.87;37.11;99855.25;2106326;28;20036;-70
2023/12/02 00:18:52;;;;;;;7.40;4.03;;;;;;;21.88;36.92;99854.09;2105717;28;20161;-72
2023/12/02 00:19:53;;;;;;;6.60;3.75;;;;;;;21.87;37.03;99852.50;2098018;28;20033;-71
2023/12/02 00:20:56;;;;;;;6.22;3.60;;;;;;;21.85;36.89;99846.63;2089509;28;20030;-70
2023/12/02 00:21:57;;;;;;;5.97;4.10;;;;;;;21.84;37.14;99855.19;2082092;28;20172;-69
2023/12/02 00:22:59;;;;;;;7.47;4.10;;;;;;;21.82;37.14;99846.59;2098576;28;20083;-69
2023/12/02 00:24:01;;;;;;;7.13;3.92;;;;;;;21.81;36.98;99850.47;2106808;28;20171;-68
2023/12/02 00:25:04;;;;;;;6.68;3.60;;;;;;;21.80;37.15;99848.91;2112973;27;20028;-68
2023/12/02 00:26:08;;;;;;;6.32;3.80;;;;;;;21.79;36.94;99852.81;2114991;28;21034;-68
2023/12/02 00:27:16;;;;;;;6.60;3.95;;;;;;;21.75;37.22;99850.81;2107991;28;20877;-68
2023/12/02 00:28:20;;;;;;;6.70;3.53;;;;;;;21.73;37.02;99850.38;2107583;28;20036;-69
2023/12/02 00:29:21;;;;;;;7.18;3.42;;;;;;;21.72;37.24;99854.28;2106937;28;20074;-69
2023/12/02 00:30:23;;;;;;;5.72;3.45;;;;;;;21.70;37.11;99853.09;2106666;28;20930;-69
2023/12/02 00:31:27;;;;;;;6.95;3.92;;;;;;;21.69;37.07;99855.03;2105347;28;20044;-68
2023/12/02 00:32:29;;;;;;;7.53;4.28;;;;;;;21.68;37.09;99858.13;2107707;28;20024;-72
2023/12/02 00:33:30;;;;;;;7.07;4.10;;;;;;;21.66;37.03;99844.81;2115338;28;20067;-72
2023/12/02 00:34:34;;;;;;;7.72;3.97;;;;;;;21.65;37.20;99847.91;2114733;28;20920;-72
2023/12/02 00:35:36;;;;;;;6.65;3.70;;;;;;;21.64;37.07;99847.13;2106396;28;20977;-72
2023/12/02 00:36:37;;;;;;;6.18;3.92;;;;;;;21.63;37.09;99844.78;2090208;28;20176;-73
2023/12/02 00:37:39;;;;;;;6.85;3.80;;;;;;;21.61;37.15;99842.41;2099337;28;20040;-72
2023/12/02 00:38:41;;;;;;;8.35;4.20;;;;;;;21.61;37.12;99855.31;2106890;28;21096;-73
2023/12/02 00:39:43;;;;;;;5.43;3.30;;;;;;;21.61;37.19;99844.34;2106847;28;20961;-72
2023/12/02 00:40:46;;;;;;;6.10;3.40;;;;;;;21.59;37.17;99843.94;2090076;28;20040;-72
2023/12/02 00:41:50;;;;;;;5.78;3.42;;;;;;;21.57;37.29;99835.31;2097756;28;20160;-73
2023/12/02 00:42:52;;;;;;;6.80;3.30;;;;;;;21.56;37.14;99844.66;2113870;28;20036;-77
2023/12/02 00:43:54;;;;;;;6.45;3.83;;;;;;;21.55;37.11;99845.84;2114923;28;20028;-75
2023/12/02 00:44:56;;;;;;;5.40;3.75;;;;;;;21.55;37.21;99837.63;2114595;28;20952;-74
2023/12/02 00:45:58;;;;;;;6.28;3.72;;;;;;;21.52;37.32;99845.41;2107177;28;20043;-74
2023/12/02 00:46:59;;;;;;;5.25;3.30;;;;;;;21.50;37.25;99847.75;2106899;28;20032;-71
2023/12/02 00:48:04;;;;;;;5.10;3.28;;;;;;;21.50;37.30;99855.13;2096224;28;20642;-70
2023/12/02 00:49:07;;;;;;;11.45;3.63;;;;;;;21.48;37.19;99846.53;2098171;28;20171;-70
2023/12/02 00:50:08;;;;;;;5.85;3.85;;;;;;;21.46;37.25;99841.41;2113354;28;20194;-70
2023/12/02 00:51:10;;;;;;;4.30;2.92;;;;;;;21.46;37.19;99846.09;2106252;28;20134;-70
2023/12/02 00:52:13;;;;;;;5.25;3.42;;;;;;;21.44;37.38;99851.94;2106566;28;20032;-71
2023/12/02 00:53:15;;;;;;;5.43;3.50;;;;;;;21.43;37.30;99846.84;2114966;28;20032;-71
2023/12/02 00:54:17;;;;;;;5.35;3.45;;;;;;;21.42;37.25;99854.25;2106769;28;20036;-71
2023/12/02 00:55:18;;;;;;;5.25;2.92;;;;;;;21.41;37.22;99855.41;2106149;28;20032;-71
2023/12/02 00:56:19;;;;;;;7.55;3.15;;;;;;;21.39;37.23;99857.72;2097904;28;20945;-70
2023/12/02 00:57:21;;;;;;;5.13;3.13;;;;;;;21.38;37.33;99867.09;2090494;28;20030;-69
2023/12/02 00:58:23;;;;;;;4.43;2.88;;;;;;;21.37;37.63;99864.72;2090102;28;21389;-69
2023/12/02 00:59:24;;;;;;;6.35;3.42;;;;;;;21.36;37.29;99863.16;2106947;28;20021;-69
2023/12/02 01:00:26;;;;;;;5.63;3.42;;;;;;;21.36;37.31;99868.63;2106566;28;20195;-69
2023/12/02 01:01:27;;;;;;;3.83;2.67;;;;;;;21.34;37.10;99874.41;2098772;28;20029;-68
2023/12/02 01:02:32;;;;;;;4.50;2.92;;;;;;;21.33;37.23;99870.09;2106992;28;20058;-68
2023/12/02 01:03:34;;;;;;;5.65;2.97;;;;;;;21.33;37.31;99874.78;2115294;28;20024;-68
2023/12/02 01:04:37;;;;;;;5.70;3.10;;;;;;;21.32;37.12;99878.69;2115532;27;20028;-69
2023/12/02 01:05:39;;;;;;;6.13;3.42;;;;;;;21.32;37.27;99878.69;2115850;27;20197;-69
2023/12/02 01:06:41;;;;;;;5.10;3.08;;;;;;;21.30;37.26;99881.78;2115383;27;21044;-68
2023/12/02 01:07:43;;;;;;;5.88;3.00;;;;;;;21.29;37.20;99885.69;2098462;28;20029;-68
2023/12/02 01:08:44;;;;;;;5.57;3.22;;;;;;;21.28;37.19;99882.16;2081562;28;20033;-68
2023/12/02 01:09:46;;;;;;;5.15;2.72;;;;;;;21.27;37.31;99886.03;2098629;28;20037;-68
2023/12/02 01:10:48;;;;;;;5.15;2.97;;;;;;;21.27;37.39;99882.50;2115640;27;20024;-69
2023/12/02 01:11:49;;;;;;;5.22;3.10;;;;;;;21.26;37.22;99878.22;2106685;28;20033;-68
2023/12/02 01:12:51;;;;;;;4.60;2.78;;;;;;;21.26;37.39;99883.66;2090151;28;20030;-68
2023/12/02 01:13:53;;;;;;;4.68;2.92;;;;;;;21.25;37.25;99879.38;2090480;28;20922;-69
2023/12/02 01:14:55;;;;;;;5.95;3.15;;;;;;;21.16;37.25;99873.38;2098178;28;20950;-69
2023/12/02 01:15:57;;;;;;;5.45;3.17;;;;;;;21.24;37.28;99884.03;2098756;28;20959;-69
2023/12/02 01:17:01;;;;;;;6.22;3.10;;;;;;;21.23;37.15;99881.66;2106591;28;20111;-69
2023/12/02 01:18:04;;;;;;;5.40;3.50;;;;;;;21.22;37.40;99880.09;2089986;28;20033;-69
2023/12/02 01:19:05;;;;;;;4.55;2.90;;;;;;;21.22;37.40;99874.63;2082492;28;20034;-69
2023/12/02 01:20:07;;;;;;;6.85;3.60;;;;;;;21.21;37.24;99867.56;2098393;28;20044;-70
2023/12/02 01:21:13;;;;;;;4.80;3.03;;;;;;;21.21;37.46;99868.34;2083655;28;20089;-70
2023/12/02 01:22:15;;;;;;;4.10;2.67;;;;;;;21.21;37.26;99875.78;2091672;28;20030;-70
2023/12/02 01:23:17;;;;;;;5.53;3.15;;;;;;;21.15;37.45;99858.09;2106416;28;20028;-70
2023/12/02 01:24:19;;;;;;;5.53;3.60;;;;;;;21.20;37.19;99871.47;2115258;28;20076;-70
2023/12/02 01:25:20;;;;;;;4.97;2.65;;;;;;;21.20;37.23;99871.47;2114746;28;20032;-70
2023/12/02 01:26:23;;;;;;;6.20;3.10;;;;;;;21.18;37.35;99863.63;2106733;28;20071;-69
2023/12/02 01:27:27;;;;;;;5.15;3.00;;;;;;;21.18;37.27;99869.09;2098818;28;20039;-70
2023/12/02 01:28:32;;;;;;;4.00;2.65;;;;;;;21.19;37.27;99873.41;2107215;28;20187;-70
2023/12/02 01:29:34;;;;;;;5.63;3.08;;;;;;;21.17;37.24;99867.53;2106188;28;20189;-69
2023/12/02 01:30:38;;;;;;;5.25;2.80;;;;;;;21.17;37.30;99866.72;2098477;28;20041;-70
2023/12/02 01:31:41;;;;;;;5.32;2.90;;;;;;;21.16;37.45;99865.94;2098242;28;20032;-69
2023/12/02 01:32:44;;;;;;;4.63;2.58;;;;;;;21.16;37.45;99862.44;2081567;28;20042;-70
2023/12/02 01:33:46;;;;;;;4.03;2.63;;;;;;;21.17;37.40;99872.19;2089891;28;20072;-69
2023/12/02 01:34:47;;;;;;;4.28;2.55;;;;;;;21.15;37.37;99869.81;2106957;28;21200;-69
2023/12/02 01:35:49;;;;;;;5.55;3.05;;;;;;;21.16;37.30;99865.16;2089698;28;20123;-67
2023/12/02 01:36:51;;;;;;;5.22;2.63;;;;;;;21.15;37.37;99869.03;2082083;28;20080;-71
2023/12/02 01:37:53;;;;;;;4.30;2.22;;;;;;;21.11;37.40;99873.66;2089972;28;20114;-71
2023/12/02 01:38:55;;;;;;;4.82;2.45;;;;;;;21.14;37.23;99867.47;2090064;28;20033;-71
2023/12/02 01:39:56;;;;;;;4.57;2.30;;;;;;;21.13;37.57;99863.16;2089880;28;20048;-71
2023/12/02 01:40:58;;;;;;;4.22;2.45;;;;;;;21.13;37.39;99871.38;2081868;28;20042;-71
2023/12/02 01:42:00;;;;;;;4.70;2.33;;;;;;;21.09;37.50;99859.56;2089874;28;20029;-72
2023/12/02 01:43:03;;;;;;;3.42;2.20;;;;;;;21.13;37.48;99863.16;2098228;28;20942;-71
2023/12/02 01:44:05;;;;;;;3.35;2.17;;;;;;;21.12;37.39;99869.75;2106718;28;20043;-71
2023/12/02 01:45:09;;;;;;;3.25;1.80;;;;;;;21.11;37.23;99868.19;2115695;27;20036;-71
2023/12/02 01:46:15;;;;;;;3.63;2.25;;;;;;;21.11;37.39;99873.66;2106396;28;20044;-71
2023/12/02 01:47:19;;;;;;;2.90;2.00;;;;;;;21.11;37.25;99873.66;2100256;28;20863;-71
2023/12/02 01:48:32;;;;;;;3.20;2.10;;;;;;;21.11;37.32;99868.19;2098467;28;20040;-71
2023/12/02 01:49:35;;;;;;;4.88;2.20;;;;;;;21.09;37.27;99865.03;2101738;28;20043;-70
2023/12/02 01:50:37;;;;;;;4.93;1.80;;;;;;;21.10;37.40;99861.16;2106591;28;20199;-71
2023/12/02 01:51:49;;;;;;;3.17;1.88;;;;;;;21.08;37.34;99866.97;2106900;28;20930;-70
2023/12/02 01:52:57;;;;;;;2.83;1.63;;;;;;;21.06;37.33;99858.38;2115443;28;20163;-71
2023/12/02 01:53:58;;;;;;;3.05;2.00;;;;;;;21.09;37.48;99859.56;2106322;28;20917;-73
2023/12/02 01:54:59;;;;;;;5.20;1.88;;;;;;;21.06;37.48;99853.69;2106513;28;20210;-73
2023/12/02 01:56:00;;;;;;;4.20;1.90;;;;;;;21.08;37.41;99863.47;2106310;28;20135;-73
2023/12/02 01:57:06;;;;;;;4.63;1.77;;;;;;;21.06;37.45;99853.69;2099110;28;20898;-73
2023/12/02 01:58:08;;;;;;;2.47;1.60;;;;;;;21.07;37.51;99859.94;2089900;28;20040;-73
2023/12/02 01:59:11;;;;;;;2.40;1.60;;;;;;;21.07;37.46;99857.22;2098356;28;20222;-73
2023/12/02 02:00:18;;;;;;;3.15;1.70;;;;;;;21.05;37.43;99857.56;2106795;28;20122;-73
2023/12/02 02:01:20;;;;;;;2.40;1.58;;;;;;;21.06;37.49;99861.09;2107188;28;20037;-73
2023/12/02 02:02:22;;;;;;;3.13;1.70;;;;;;;21.04;37.50;99856.00;2115155;28;20178;-72
2023/12/02 02:03:24;;;;;;;2.17;1.45;;;;;;;21.06;37.56;99863.84;2106370;28;20040;-70
2023/12/02 02:04:26;;;;;;;2.33;1.58;;;;;;;21.04;37.34;99856.00;2098064;28;20036;-71
2023/12/02 02:05:30;;;;;;;3.05;1.60;;;;;;;21.04;37.49;99855.22;2106877;28;20037;-70
2023/12/02 02:06:32;;;;;;;2.83;1.55;;;;;;;21.04;37.40;99861.47;2100318;28;20100;-72
2023/12/02 02:07:34;;;;;;;2.63;1.58;;;;;;;21.04;37.44;99857.94;2106738;28;20869;-70
2023/12/02 02:08:38;;;;;;;3.25;1.55;;;;;;;21.04;37.49;99864.19;2114679;28;20042;-71
2023/12/02 02:09:48;;;;;;;1.83;1.23;;;;;;;21.04;37.63;99868.88;2106971;28;20033;-71
2023/12/02 02:10:57;;;;;;;2.38;1.30;;;;;;;21.03;37.41;99867.31;2099200;28;20021;-72
2023/12/02 02:11:58;;;;;;;2.63;1.27;;;;;;;21.04;37.52;99868.88;2098908;28;20033;-71
2023/12/02 02:13:00;;;;;;;2.20;1.40;;;;;;;21.03;37.63;99862.63;2089504;28;20026;-71
2023/12/02 02:14:02;;;;;;;2.00;1.20;;;;;;;21.02;37.59;99861.03;2089918;28;20035;-71
2023/12/02 02:15:05;;;;;;;2.80;1.42;;;;;;;21.03;37.68;99859.88;2106351;28;20126;-75
2023/12/02 02:16:09;;;;;;;3.92;1.33;;;;;;;21.02;37.59;99861.03;2106441;28;20021;-75
2023/12/02 02:17:10;;;;;;;2.80;1.50;;;;;;;21.03;37.42;99862.63;2106151;28;20033;-74
2023/12/02 02:18:13;;;;;;;2.20;1.65;;;;;;;21.01;37.63;99850.47;2098826;28;20060;-74
2023/12/02 02:19:18;;;;;;;3.45;1.60;;;;;;;21.03;37.54;99861.84;2097988;28;20168;-74
2023/12/02 02:20:21;;;;;;;3.28;1.98;;;;;;;21.02;37.54;99858.28;2099048;28;20036;-74
2023/12/02 02:21:26;;;;;;;2.72;1.90;;;;;;;21.02;37.42;99861.03;2106584;28;20036;-74
2023/12/02 02:22:27;;;;;;;3.55;2.00;;;;;;;21.02;37.37;99850.09;2106539;28;20802;-74
2023/12/02 02:23:29;;;;;;;3.63;2.25;;;;;;;21.01;37.54;99854.00;2106357;27;20163;-74
2023/12/02 02:24:33;;;;;;;4.97;2.55;;;;;;;21.01;37.50;99854.00;2106505;28;20044;-74
2023/12/02 02:25:37;;;;;;;3.38;2.03;;;;;;;21.02;37.50;99855.56;2099005;28;20059;-74
2023/12/02 02:26:38;;;;;;;4.18;2.20;;;;;;;21.01;37.56;99862.19;2115427;27;20032;-73
2023/12/02 02:27:41;;;;;;;3.63;2.30;;;;;;;21.02;37.46;99849.31;2122903;27;20032;-71
2023/12/02 02:28:42;;;;;;;4.13;2.17;;;;;;;21.02;37.52;99852.03;2115605;28;20035;-71
2023/12/02 02:29:44;;;;;;;3.20;2.10;;;;;;;20.97;37.25;99853.16;2105765;28;21432;-71
2023/12/02 02:30:45;;;;;;;3.47;2.10;;;;;;;21.01;37.44;99858.66;2098229;28;20033;-69
2023/12/02 02:31:47;;;;;;;4.05;2.25;;;;;;;21.01;37.44;99859.47;2097700;28;20175;-69
2023/12/02 02:32:48;;;;;;;3.78;2.35;;;;;;;21.00;37.44;99852.44;2097756;28;20033;-70
2023/12/02 02:33:56;;;;;;;3.90;2.10;;;;;;;21.00;37.32;99855.16;2097619;28;20965;-70
2023/12/02 02:34:58;;;;;;;3.03;2.10;;;;;;;20.99;37.35;99859.03;2091146;28;20954;-70
2023/12/02 02:36:00;;;;;;;3.40;2.30;;;;;;;20.98;37.48;99852.00;2106215;28;20893;-68
2023/12/02 02:37:02;;;;;;;3.90;2.38;;;;;;;20.98;37.46;99854.72;2112106;28;20807;-69
2023/12/02 02:38:03;;;;;;;3.63;2.25;;;;;;;20.98;37.48;99852.00;2106146;28;21352;-69
2023/12/02 02:39:07;;;;;;;3.63;2.03;;;;;;;20.99;37.49;99855.50;2106583;28;20021;-69
2023/12/02 02:40:10;;;;;;;3.67;2.05;;;;;;;20.98;37.38;99854.72;2106527;28;20036;-69
2023/12/02 02:41:12;;;;;;;3.25;2.08;;;;;;;20.98;37.38;99854.72;2106237;28;20036;-71
2023/12/02 02:42:13;;;;;;;3.78;2.05;;;;;;;20.97;37.44;99853.16;2114500;28;20884;-70
2023/12/02 02:43:16;;;;;;;2.97;2.15;;;;;;;20.96;37.34;99857.03;2106345;28;20143;-69
2023/12/02 02:44:20;;;;;;;3.97;2.40;;;;;;;20.97;37.36;99852.38;2089802;28;20033;-69
2023/12/02 02:45:23;;;;;;;3.75;2.28;;;;;;;20.96;37.32;99851.56;2090543;28;20034;-69
2023/12/02 02:46:25;;;;;;;2.53;1.70;;;;;;;20.96;37.18;99856.25;2089717;28;20885;-71
2023/12/02 02:47:27;;;;;;;3.45;2.03;;;;;;;20.95;37.38;99852.72;2097913;28;20180;-70
2023/12/02 02:48:32;;;;;;;2.40;2.00;;;;;;;20.96;37.35;99858.97;2098516;28;20037;-72
2023/12/02 02:49:34;;;;;;;2.67;1.80;;;;;;;20.95;37.32;99855.44;2106265;28;20083;-72
2023/12/02 02:50:36;;;;;;;3.10;1.98;;;;;;;20.94;37.31;99856.63;2106000;28;20031;-70
2023/12/02 02:51:38;;;;;;;2.65;2.10;;;;;;;20.94;37.21;99853.88;2106288;28;20045;-70
2023/12/02 02:52:42;;;;;;;3.03;2.00;;;;;;;20.94;37.22;99858.56;2105388;28;20043;-70
2023/12/02 02:53:44;;;;;;;2.75;1.63;;;;;;;20.93;37.24;99848.78;2105507;28;20947;-70
2023/12/02 02:54:45;;;;;;;3.38;1.88;;;;;;;20.93;37.34;99855.06;2104694;28;20040;-70
2023/12/02 02:55:47;;;;;;;4.25;2.03;;;;;;;20.93;37.27;99846.84;2096593;28;20955;-70
2023/12/02 02:56:48;;;;;;;2.53;1.50;;;;;;;20.91;37.33;99846.41;2088242;28;20064;-70
2023/12/02 02:57:51;;;;;;;2.58;1.85;;;;;;;20.91;37.30;99854.63;2088720;28;20048;-71
2023/12/02 02:58:52;;;;;;;2.55;1.67;;;;;;;20.91;37.26;99851.88;2104854;28;20028;-72
2023/12/02 02:59:54;;;;;;;2.15;1.67;;;;;;;20.91;37.32;99854.63;2113599;28;20032;-72
2023/12/02 03:00:56;;;;;;;3.25;1.90;;;;;;;20.90;37.14;99855.78;2113372;28;20031;-72
2023/12/02 03:01:58;;;;;;;2.45;1.67;;;;;;;20.89;37.26;99856.91;2113513;27;20074;-72
2023/12/02 03:02:59;;;;;;;3.58;1.60;;;;;;;20.89;37.22;99856.91;2113142;28;20040;-72
2023/12/02 03:04:01;;;;;;;3.17;1.52;;;;;;;20.89;37.28;99858.84;2113413;28;20063;-71
2023/12/02 03:05:02;;;;;;;3.08;1.63;;;;;;;20.88;37.20;99858.06;2104591;28;20032;-72
2023/12/02 03:06:08;;;;;;;4.03;1.50;;;;;;;20.88;37.26;99863.53;2089013;28;20041;-71
2023/12/02 03:07:09;;;;;;;1.75;1.50;;;;;;;20.88;37.07;99857.28;2097059;28;20079;-71
2023/12/02 03:08:11;;;;;;;2.65;1.50;;;;;;;20.89;37.27;99870.56;2096549;28;20130;-71
2023/12/02 03:09:14;;;;;;;3.33;1.90;;;;;;;20.88;37.11;99855.34;2105206;27;20810;-71
2023/12/02 03:10:16;;;;;;;2.78;1.65;;;;;;;20.88;37.19;99855.34;2113360;28;21045;-70
2023/12/02 03:11:17;;;;;;;2.55;1.40;;;;;;;20.83;37.12;99855.63;2096857;28;20029;-70
2023/12/02 03:12:19;;;;;;;2.15;1.50;;;;;;;20.88;37.38;99857.28;2088017;28;20245;-70
2023/12/02 03:13:20;;;;;;;2.33;1.52;;;;;;;20.88;37.23;99851.81;2096855;28;20072;-69
2023/12/02 03:14:22;;;;;;;1.80;1.15;;;;;;;20.87;36.95;99867.44;2087940;28;20465;-69
2023/12/02 03:15:23;;;;;;;2.03;1.40;;;;;;;20.88;37.29;99868.22;2072114;28;20034;-70
2023/12/02 03:16:26;;;;;;;2.30;1.40;;;;;;;20.88;37.47;99862.75;2088390;28;20124;-69
2023/12/02 03:17:27;;;;;;;1.95;1.50;;;;;;;20.85;37.33;99861.53;2113250;28;20039;-72
2023/12/02 03:18:31;;;;;;;2.53;1.40;;;;;;;20.87;37.44;99864.69;2097164;28;20091;-71
2023/12/02 03:19:32;;;;;;;2.00;1.50;;;;;;;20.87;37.21;99856.50;2074663;28;20264;-72
2023/12/02 03:20:34;;;;;;;3.83;1.98;;;;;;;20.86;37.29;99848.66;2082099;28;20038;-72
2023/12/02 03:21:35;;;;;;;2.75;1.70;;;;;;;20.87;37.23;99850.22;2090558;28;21005;-71
2023/12/02 03:22:37;;;;;;;2.42;1.42;;;;;;;20.87;37.15;99851.03;2106693;28;20251;-71
2023/12/02 03:23:38;;;;;;;2.22;1.67;;;;;;;20.87;37.24;99853.78;2107770;28;20116;-72
2023/12/02 03:24:43;;;;;;;1.83;1.30;;;;;;;20.86;37.25;99849.44;2107973;28;20123;-72
2023/12/02 03:25:44;;;;;;;1.90;1.20;;;;;;;20.86;37.15;99852.19;2098932;28;20958;-73
2023/12/02 03:26:45;;;;;;;2.60;1.52;;;;;;;20.87;37.22;99859.25;2091027;28;20127;-72
2023/12/02 03:27:47;;;;;;;2.30;1.20;;;;;;;20.87;37.10;99863.88;2090909;28;20171;-72
2023/12/02 03:28:48;;;;;;;2.63;1.33;;;;;;;20.86;37.11;99854.91;2090836;28;20033;-73
2023/12/02 03:29:51;;;;;;;2.10;1.30;;;;;;;20.86;37.19;99860.38;2099239;28;20036;-73
2023/12/02 03:30:56;;;;;;;2.38;1.50;;;;;;;20.85;37.22;99856.06;2107344;28;20838;-73
2023/12/02 03:31:58;;;;;;;1.80;1.30;;;;;;;20.85;37.04;99858.81;2099379;28;20033;-73
2023/12/02 03:32:59;;;;;;;2.30;1.23;;;;;;;20.86;37.07;99860.38;2099269;28;20084;-72
2023/12/02 03:34:01;;;;;;;2.53;1.40;;;;;;;20.85;37.08;99853.34;2099320;28;20033;-72
2023/12/02 03:35:03;;;;;;;1.40;1.00;;;;;;;20.84;36.98;99857.22;2099162;28;20067;-73
2023/12/02 03:36:06;;;;;;;2.40;1.30;;;;;;;20.84;36.96;99862.69;2107825;28;20221;-73
2023/12/02 03:37:08;;;;;;;2.33;1.40;;;;;;;20.83;36.96;99858.38;2115935;27;20039;-73
2023/12/02 03:38:10;;;;;;;2.97;1.23;;;;;;;20.83;36.94;99863.84;2107452;28;21054;-73
2023/12/02 03:39:15;;;;;;;2.63;1.30;;;;;;;20.81;36.95;99866.16;2107220;28;21331;-74
2023/12/02 03:40:17;;;;;;;1.70;1.40;;;;;;;20.82;36.89;99859.53;2099275;28;20704;-73
2023/12/02 03:41:19;;;;;;;1.50;1.20;;;;;;;20.82;36.76;99868.50;2098922;28;20041;-72
2023/12/02 03:42:20;;;;;;;1.80;1.20;;;;;;;20.82;36.97;99867.72;2115863;28;20075;-72
2023/12/02 03:43:23;;;;;;;1.60;1.25;;;;;;;20.81;36.92;99871.63;2116136;27;20105;-74
2023/12/02 03:44:25;;;;;;;1.52;1.10;;;;;;;20.80;36.81;99868.06;2107776;28;20175;-74
2023/12/02 03:45:26;;;;;;;1.55;1.10;;;;;;;20.78;36.77;99866.88;2099339;28;20993;-73
2023/12/02 03:46:31;;;;;;;2.55;1.52;;;;;;;20.78;36.83;99864.94;2115997;28;20032;-74
2023/12/02 03:47:34;;;;;;;2.05;1.20;;;;;;;20.79;36.67;99868.47;2116035;27;20047;-74
2023/12/02 03:48:36;;;;;;;1.85;1.20;;;;;;;20.77;36.85;99865.28;2107324;28;20186;-72
2023/12/02 03:49:40;;;;;;;1.83;1.10;;;;;;;20.77;36.84;99870.75;2099116;28;20245;-73
2023/12/02 03:50:41;;;;;;;2.58;1.20;;;;;;;20.77;36.86;99868.03;2099214;28;20033;-73
2023/12/02 03:51:44;;;;;;;1.92;1.15;;;;;;;20.77;36.65;99873.47;2099034;28;20029;-73
2023/12/02 03:52:46;;;;;;;1.60;1.10;;;;;;;20.76;36.97;99869.19;2107457;28;20032;-74
2023/12/02 03:53:47;;;;;;;1.65;0.88;;;;;;;20.75;36.87;99864.88;2115805;28;20024;-73
2023/12/02 03:54:49;;;;;;;1.65;1.00;;;;;;;20.75;36.69;99875.81;2107523;28;20032;-73
2023/12/02 03:55:54;;;;;;;1.83;1.10;;;;;;;20.74;36.85;99866.81;2098732;28;20041;-73
2023/12/02 03:56:55;;;;;;;1.98;1.08;;;;;;;20.73;36.83;99865.22;2090888;28;20895;-73
2023/12/02 03:57:56;;;;;;;1.85;1.23;;;;;;;20.74;36.70;99868.75;2082189;28;20029;-74
2023/12/02 03:58:58;;;;;;;2.28;1.08;;;;;;;20.73;36.81;99869.91;2091109;28;20073;-73
2023/12/02 04:00:00;;;;;;;1.58;1.13;;;;;;;20.72;36.75;99871.84;2107025;28;20079;-70
2023/12/02 04:01:02;;;;;;;2.08;1.50;;;;;;;20.73;36.87;99876.16;2107874;28;20107;-70
2023/12/02 04:02:03;;;;;;;1.58;1.17;;;;;;;20.73;36.87;99869.91;2098401;28;20126;-71
2023/12/02 04:03:05;;;;;;;2.90;1.38;;;;;;;20.72;36.76;99871.06;2082355;28;20034;-70
2023/12/02 04:04:09;;;;;;;2.47;1.30;;;;;;;20.72;36.73;99871.06;2099591;28;20029;-70
2023/12/02 04:05:12;;;;;;;2.38;1.30;;;;;;;20.71;36.71;99867.56;2115193;28;20082;-70
2023/12/02 04:06:14;;;;;;;2.33;1.50;;;;;;;20.70;36.79;99865.97;2107432;28;20110;-70
2023/12/02 04:07:16;;;;;;;2.33;1.30;;;;;;;20.71;36.83;99869.47;2098791;28;20930;-69
2023/12/02 04:08:18;;;;;;;1.58;1.08;;;;;;;20.71;36.90;99866.75;2090609;28;20033;-70
2023/12/02 04:09:21;;;;;;;2.47;1.17;;;;;;;20.70;36.88;99865.16;2107543;28;20154;-70
2023/12/02 04:10:23;;;;;;;4.38;1.38;;;;;;;20.70;36.83;99860.50;2106607;28;20039;-70
2023/12/02 04:11:24;;;;;;;1.90;1.10;;;;;;;20.70;36.97;99865.16;2090881;28;20034;-70
2023/12/02 04:12:26;;;;;;;1.30;1.02;;;;;;;20.70;36.75;99854.25;2099029;28;20036;-70
2023/12/02 04:13:29;;;;;;;1.88;1.05;;;;;;;20.70;36.91;99865.16;2107400;28;20036;-70
2023/12/02 04:14:30;;;;;;;1.33;1.15;;;;;;;20.70;36.79;99859.72;2107276;28;20033;-70
2023/12/02 04:15:32;;;;;;;2.38;1.30;;;;;;;20.69;37.05;99856.19;2098889;28;20953;-70
2023/12/02 04:16:40;;;;;;;1.80;1.10;;;;;;;20.68;36.86;99868.28;2107250;28;20235;-70
2023/12/02 04:17:42;;;;;;;2.33;1.20;;;;;;;20.69;37.00;99858.13;2115790;28;20039;-70
2023/12/02 04:18:43;;;;;;;2.38;1.20;;;;;;;20.68;36.91;99862.81;2115325;28;21017;-69
2023/12/02 04:19:45;;;;;;;2.17;1.25;;;;;;;20.66;36.76;99859.66;2115693;28;20032;-69
2023/12/02 04:20:51;;;;;;;1.80;1.20;;;;;;;20.67;36.89;99861.22;2107000;28;20193;-69
2023/12/02 04:21:53;;;;;;;1.23;1.02;;;;;;;20.65;36.85;99858.09;2106613;28;20875;-69
2023/12/02 04:22:54;;;;;;;1.67;1.25;;;;;;;20.68;36.88;99868.28;2089921;28;20034;-69
2023/12/02 04:23:56;;;;;;;2.70;1.35;;;;;;;20.67;37.00;99863.16;2090483;28;20228;-68
2023/12/02 04:25:01;;;;;;;1.65;1.20;;;;;;;20.66;36.83;99861.59;2099516;28;20111;-68
2023/12/02 04:26:03;;;;;;;1.77;1.30;;;;;;;20.65;36.86;99858.09;2099220;28;20033;-69
2023/12/02 04:27:07;;;;;;;2.13;1.35;;;;;;;20.67;36.98;99858.50;2098602;28;20938;-69
2023/12/02 04:28:09;;;;;;;1.40;1.10;;;;;;;20.66;36.94;99854.19;2107516;28;20032;-69
2023/12/02 04:29:10;;;;;;;2.00;1.25;;;;;;;20.66;36.78;99853.41;2098222;28;20029;-71
2023/12/02 04:30:12;;;;;;;2.13;1.23;;;;;;;20.66;36.88;99856.13;2090217;28;20033;-70
2023/12/02 04:31:14;;;;;;;1.70;1.10;;;;;;;20.66;36.78;99862.38;2098772;28;20037;-72
2023/12/02 04:32:15;;;;;;;1.90;1.17;;;;;;;20.66;36.79;99858.88;2098801;28;20119;-71
2023/12/02 04:33:18;;;;;;;1.40;1.20;;;;;;;20.66;36.86;99858.88;2107283;28;20087;-70
2023/12/02 04:34:20;;;;;;;1.48;1.10;;;;;;;20.65;36.69;99857.25;2115717;28;20137;-71
2023/12/02 04:35:22;;;;;;;1.83;1.10;;;;;;;20.65;36.75;99863.53;2098603;28;20029;-70
2023/12/02 04:36:23;;;;;;;2.22;1.45;;;;;;;20.65;36.69;99857.25;2107420;27;20032;-71
2023/12/02 04:37:24;;;;;;;1.77;1.10;;;;;;;20.65;36.76;99862.72;2106914;28;20094;-71
2023/12/02 04:38:26;;;;;;;1.45;1.23;;;;;;;20.64;36.69;99859.22;2099096;28;20042;-70
2023/12/02 04:39:28;;;;;;;2.08;1.13;;;;;;;20.64;36.69;99856.47;2098882;28;21554;-71
2023/12/02 04:40:31;;;;;;;1.58;1.20;;;;;;;20.64;36.52;99855.69;2098754;28;20033;-70
2023/12/02 04:41:33;;;;;;;1.83;1.42;;;;;;;20.63;36.59;99863.09;2107388;28;20114;-70
2023/12/02 04:42:34;;;;;;;2.35;1.30;;;;;;;20.64;36.60;99866.63;2103805;28;20145;-70
2023/12/02 04:43:36;;;;;;;2.40;1.50;;;;;;;20.63;36.50;99862.31;2098608;28;20051;-70
2023/12/02 04:44:37;;;;;;;2.30;1.33;;;;;;;20.61;36.44;99865.41;2098677;28;20029;-70
2023/12/02 04:45:39;;;;;;;2.05;1.08;;;;;;;20.62;36.58;99866.19;2106907;28;20044;-70
2023/12/02 04:46:43;;;;;;;2.35;1.25;;;;;;;20.60;36.66;99866.56;2107184;28;20029;-70
2023/12/02 04:47:45;;;;;;;2.53;1.13;;;;;;;20.60;36.57;99861.88;2096570;28;20847;-70
2023/12/02 04:48:47;;;;;;;1.80;1.40;;;;;;;20.60;36.57;99863.84;2090280;28;20045;-70
2023/12/02 04:49:48;;;;;;;2.58;1.33;;;;;;;20.60;36.47;99866.56;2098350;28;21045;-70
2023/12/02 04:50:52;;;;;;;3.28;1.40;;;;;;;20.59;36.55;99870.47;2099028;28;20171;-70
2023/12/02 04:51:53;;;;;;;2.08;1.67;;;;;;;20.59;36.71;99868.50;2090430;28;20050;-69
2023/12/02 04:52:55;;;;;;;3.20;1.70;;;;;;;20.58;36.60;99869.66;2097793;28;20033;-70
2023/12/02 04:53:59;;;;;;;2.67;1.55;;;;;;;20.56;36.80;99869.22;2090015;28;20166;-70